Flight Track Log - Related Links

Times and Time Zones

All times are in EDT time to prevent confusion due to time zone crossing. See the N76055 flight status page for this flight to view local times or setup timezone preferences in your user account.

Time Position Orientation Groundspeed Altitude Reporting Facility
EDT Latitude Longitude Course Direction KTS MPH feet Rate Location/Type
Sun 05:41:52 PM 40.7393 -74.1058 50° Northeast 252 290 2,800  Level FlightAware
Sun 05:41:59 PM 40.7450 -74.0983 45° Northeast 255 293 2,900 400 Climbing FlightAware
Sun 05:42:07 PM 40.7529 -74.0915 33° Northeast 256 295 2,900  Level FlightAware
Sun 05:42:10 PM 40.7563 -74.0895 24° Northeast 256 295 2,900  Level FlightAware
Sun 05:42:15 PM 40.7617 -74.0874 16° North 254 292 2,900 -667 Level FlightAware
Sun 05:42:19 PM 40.7662 -74.0868 North 252 290 2,800 -857 Descending FlightAware
Sun 05:42:22 PM 40.7697 -74.0867 North 251 289 2,800  Level FlightAware
Sun 05:42:28 PM 40.7772 -74.0881 352° North 252 290 2,800 667 Level FlightAware
Sun 05:42:31 PM 40.7806 -74.0895 343° North 252 290 2,900 2,571 Climbing FlightAware
Sun 05:42:35 PM 40.7842 -74.0919 333° Northwest 250 288 3,100 2,571 Climbing FlightAware
Sun 05:42:38 PM 40.7876 -74.0947 328° Northwest 249 287 3,200 2,571 Climbing FlightAware
Sun 05:42:42 PM 40.7909 -74.0980 323° Northwest 249 287 3,400 3,000 Climbing FlightAware
Sun 05:42:46 PM 40.7942 -74.1024 315° West 249 287 3,600 3,429 Climbing FlightAware
Sun 05:42:49 PM 40.7965 -74.1063 308° West 249 287 3,800 4,500 Climbing FlightAware
Sun 05:42:54 PM 40.7990 -74.1125 298° West 250 288 4,200 4,667 Climbing FlightAware
Sun 05:42:58 PM 40.8008 -74.1183 292° West 249 287 4,500 4,500 Climbing FlightAware
Sun 05:43:02 PM 40.8019 -74.1239 285° West 249 287 4,800 5,143 Climbing FlightAware
Sun 05:43:05 PM 40.8024 -74.1297 276° West 249 287 5,100 5,143 Climbing FlightAware
Sun 05:43:09 PM 40.8024 -74.1345 270° West 249 287 5,400 4,286 Climbing FlightAware
Sun 05:43:12 PM 40.8018 -74.1400 262° West 250 288 5,600 4,500 Climbing FlightAware
Sun 05:43:17 PM 40.8007 -74.1465 257° West 251 289 6,000 3,545 Climbing FlightAware
Sun 05:43:34 PM 40.7948 -74.1716 253° West 255 293 6,900 2,438 Climbing FlightAware
Sun 05:43:49 PM 40.7891 -74.1930 251° West 245 282 7,300 1,355 Climbing FlightAware
Sun 05:44:05 PM 40.7829 -74.2148 249° West 237 273 7,600 811 Climbing FlightAware
Sun 05:44:26 PM 40.7736 -74.2431 247° West 240 276 7,800 316 Climbing FlightAware
Sun 05:44:43 PM 40.7658 -74.2656 245° Southwest 241 277 7,800 316 Level FlightAware
Sun 05:44:45 PM 40.7649 -74.2686 248° West 242 278 7,900 2,333 Climbing FlightAware
Sun 05:45:01 PM 40.7576 -74.2904 246° West 242 278 8,500 3,000 Climbing FlightAware
Sun 05:45:15 PM 40.7513 -74.3089 246° West 244 281 9,400 4,000 Climbing FlightAware
Sun 05:45:31 PM 40.7427 -74.3298 241° Southwest 246 283 10,500 3,290 Climbing FlightAware
Sun 05:45:46 PM 40.7336 -74.3501 239° Southwest 254 292 11,100 1,742 Climbing FlightAware
Sun 05:46:02 PM 40.7231 -74.3731 239° Southwest 292 336 11,400 1,800 Climbing FlightAware
Sun 05:46:16 PM 40.7118 -74.3963 237° Southwest 295 339 12,000 2,903 Climbing FlightAware
Sun 05:46:33 PM 40.6984 -74.4231 237° Southwest 320 368 12,900 3,375 Climbing FlightAware
Sun 05:47:04 PM 40.6728 -74.4739 236° Southwest 331 381 14,700 3,333 Climbing FlightAware
Sun 05:47:36 PM 40.6450 -74.5295 237° Southwest 343 395 16,400 2,941 Climbing FlightAware
Sun 05:47:55 PM 40.6281 -74.5625 236° Southwest 348 400 17,200 2,500 Climbing FlightAware
Sun 05:48:00 PM 40.6238 -74.5697 232° Southwest 352 405 17,400 3,000 Climbing FlightAware
Sun 05:48:09 PM 40.6131 -74.5842 226° Southwest 361 415 17,900 3,349 Climbing FlightAware
Sun 05:48:43 PM 40.5674 -74.6326 219° Southwest 371 427 19,800 3,091 Climbing FlightAware
Sun 05:49:15 PM 40.5254 -74.6775 219° Southwest 379 436 21,300 2,667 Climbing FlightAware
Sun 05:49:46 PM 40.4822 -74.7242 219° Southwest 391 450 22,600 2,557 Climbing FlightAware
Sun 05:50:16 PM 40.4393 -74.7698 219° Southwest 396 456 23,900 2,262 Climbing FlightAware
Sun 05:50:47 PM 40.3952 -74.8169 219° Southwest 410 472 24,900 1,404 Climbing FlightAware
Sun 05:51:03 PM 40.3712 -74.8430 220° Southwest 413 475 25,000 1,915 Climbing FlightAware
Sun 05:51:34 PM 40.3335 -74.8995 229° Southwest 401 461 26,400 2,656 Climbing FlightAware
Sun 05:52:04 PM 40.2972 -74.9558 230° Southwest 403 464 27,700 1,525 Climbing FlightAware
Sun 05:52:33 PM 40.2640 -75.0113 232° Southwest 412 474 27,900 514 Climbing FlightAware
Sun 05:52:39 PM 40.2591 -75.0262 247° West 402 463 28,000 261 Climbing FlightAware
Sun 05:52:56 PM 40.2478 -75.0653 249° West 406 467 28,000 250 Level FlightAware
Sun 05:53:27 PM 40.2252 -75.1341 247° West 406 467 28,200 1,714 Climbing FlightAware
Sun 05:53:59 PM 40.2003 -75.2039 245° Southwest 387 445 29,800 1,742 Climbing FlightAware
Sun 05:54:29 PM 40.1774 -75.2667 245° Southwest 377 434 30,000 1,574 Climbing FlightAware
Sun 05:55:00 PM 40.1539 -75.3292 244° Southwest 361 415 31,400 3,000 Climbing FlightAware
Sun 05:55:21 PM 40.1386 -75.3669 242° Southwest 351 404 32,600 2,400 Climbing FlightAware
Sun 05:55:35 PM 40.1246 -75.3926 235° Southwest 365 420 32,800 1,200 Climbing FlightAware
Sun 05:56:06 PM 40.0887 -75.4448 228° Southwest 376 433 33,500 1,594 Climbing FlightAware
Sun 05:56:39 PM 40.0501 -75.4980 227° Southwest 377 434 34,500 2,118 Climbing FlightAware
Sun 05:57:14 PM 40.0084 -75.5552 226° Southwest 365 420 35,900 2,239 Climbing FlightAware
Sun 05:57:46 PM 39.9716 -75.6065 227° Southwest 357 411 37,000 1,905 Climbing FlightAware
Sun 05:58:17 PM 39.9378 -75.6537 227° Southwest 339 390 37,900 1,091 Climbing FlightAware
Sun 05:58:41 PM 39.9142 -75.6898 230° Southwest 332 382 38,000 79 Climbing FlightAware
Sun 05:59:33 PM 39.8646 -75.7706 231° Southwest 331 381 38,000  Level FlightAware
Sun 06:00:04 PM 39.8347 -75.8190 231° Southwest 334 384 38,000  Level FlightAware
Sun 06:00:39 PM 39.8005 -75.8743 231° Southwest 337 388 38,000  Level FlightAware
Sun 06:01:11 PM 39.7695 -75.9244 231° Southwest 340 391 38,000  Level FlightAware
Sun 06:01:42 PM 39.7387 -75.9739 231° Southwest 341 392 38,000  Level FlightAware
Sun 06:02:16 PM 39.7052 -76.0283 231° Southwest 342 394 38,000  Level FlightAware
Sun 06:02:47 PM 39.6747 -76.0774 231° Southwest 344 396 38,000  Level FlightAware
Sun 06:03:17 PM 39.6448 -76.1256 231° Southwest 345 397 38,000  Level FlightAware
Sun 06:03:52 PM 39.6096 -76.1821 231° Southwest 345 397 38,000  Level FlightAware
Sun 06:04:23 PM 39.5850 -76.2200 230° Southwest 345 397 38,000  Level FlightAware
Sun 06:04:26 PM 39.5749 -76.2367 232° Southwest 345 397 38,000  Level FlightAware
Sun 06:04:59 PM 39.5424 -76.2871 230° Southwest 337 388 38,000  Level FlightAware
Sun 06:05:31 PM 39.5112 -76.3358 230° Southwest 328 377 38,000  Level FlightAware
Sun 06:06:01 PM 39.4815 -76.3823 230° Southwest 325 374 38,000  Level FlightAware
Sun 06:06:33 PM 39.4516 -76.4300 231° Southwest 325 374 38,000  Level FlightAware
Sun 06:07:10 PM 39.4164 -76.4868 231° Southwest 330 380 38,000  Level FlightAware
Sun 06:07:42 PM 39.3856 -76.5364 231° Southwest 333 383 38,000  Level FlightAware
Sun 06:08:13 PM 39.3563 -76.5831 231° Southwest 336 387 38,000  Level FlightAware
Sun 06:08:43 PM 39.3268 -76.6301 231° Southwest 338 389 38,000  Level FlightAware
Sun 06:09:13 PM 39.2964 -76.6784 231° Southwest 341 392 38,000  Level FlightAware
Sun 06:09:51 PM 39.2592 -76.7374 231° Southwest 343 395 38,000  Level FlightAware
Sun 06:10:23 PM 39.2262 -76.7896 231° Southwest 345 397 38,000  Level FlightAware
Sun 06:10:58 PM 39.1911 -76.8452 231° Southwest 347 399 38,000  Level FlightAware
Sun 06:11:29 PM 39.1597 -76.8947 231° Southwest 348 400 38,000  Level FlightAware
Sun 06:11:59 PM 39.1290 -76.9431 231° Southwest 348 400 38,000  Level FlightAware
Sun 06:12:31 PM 39.0968 -76.9937 231° Southwest 346 398 38,000  Level FlightAware
Sun 06:13:06 PM 39.0599 -77.0471 228° Southwest 351 404 38,000  Level FlightAware
Sun 06:14:02 PM 38.9910 -77.1249 221° Southwest 351 404 38,000  Level FlightAware
Sun 06:14:36 PM 38.9493 -77.1710 221° Southwest 349 402 38,000  Level FlightAware
Sun 06:15:06 PM 38.9126 -77.2114 221° Southwest 347 399 38,000  Level FlightAware
Sun 06:15:40 PM 38.8714 -77.2570 221° Southwest 345 397 38,000  Level FlightAware
Sun 06:16:14 PM 38.8306 -77.3024 221° Southwest 344 396 38,000  Level FlightAware
Sun 06:16:45 PM 38.7937 -77.3431 221° Southwest 342 394 38,000  Level FlightAware
Sun 06:17:25 PM 38.7458 -77.3961 221° Southwest 342 394 38,000  Level FlightAware
Sun 06:18:03 PM 38.7100 -77.4350 220° Southwest 341 392 38,000  Level FlightAware
Sun 06:18:33 PM 38.6642 -77.4855 221° Southwest 342 394 38,000  Level FlightAware
Sun 06:19:28 PM 38.6070 -77.5480 221° Southwest 343 395 38,000  Level FlightAware
Sun 06:20:08 PM 38.5590 -77.6010 221° Southwest 343 395 38,000  Level FlightAware
Sun 06:20:58 PM 38.5030 -77.6620 220° Southwest 343 395 38,000  Level FlightAware
Sun 06:21:09 PM 38.4761 -77.6910 220° Southwest 343 395 38,000  Level FlightAware
Sun 06:22:08 PM 38.4170 -77.7560 221° Southwest 341 392 38,000  Level FlightAware
Sun 06:22:37 PM 38.3705 -77.8054 220° Southwest 342 394 38,000  Level FlightAware
Sun 06:23:15 PM 38.3248 -77.8547 220° Southwest 343 395 38,000  Level FlightAware
Sun 06:24:13 PM 38.2690 -77.9150 220° Southwest 340 391 38,000  Level FlightAware
Sun 06:25:08 PM 38.1960 -77.9930 220° Southwest 342 394 38,000  Level FlightAware
Sun 06:25:48 PM 38.1470 -78.0460 220° Southwest 344 396 38,000  Level FlightAware
Sun 06:26:33 PM 38.0960 -78.1010 220° Southwest 345 397 38,000  Level FlightAware
Sun 06:27:13 PM 38.0500 -78.1500 220° Southwest 347 399 38,000  Level FlightAware
Sun 06:27:58 PM 37.9900 -78.2090 218° Southwest 355 409 38,000  Level FlightAware
Sun 06:29:08 PM 37.9840 -78.2160 223° Southwest 356 410 38,000  Level FlightAware
Sun 06:30:03 PM 37.8240 -78.3690 217° Southwest 357 411 38,000  Level FlightAware
Sun 06:30:38 PM 37.7760 -78.4150 217° Southwest 350 403 38,000  Level FlightAware
Sun 06:31:28 PM 37.7180 -78.4690 216° Southwest 349 402 38,000  Level FlightAware
Sun 06:32:03 PM 37.6640 -78.5210 217° Southwest 346 398 38,000  Level FlightAware
Sun 06:32:48 PM 37.6060 -78.5760 217° Southwest 343 395 38,000  Level FlightAware
Sun 06:33:48 PM 37.5320 -78.6460 217° Southwest 343 395 38,000  Level FlightAware
Sun 06:34:28 PM 37.4890 -78.6870 217° Southwest 343 395 38,000  Level FlightAware
Sun 06:35:08 PM 37.4460 -78.7280 217° Southwest 343 395 38,000  Level FlightAware
Sun 06:35:48 PM 37.4030 -78.7690 217° Southwest 343 395 38,000  Level FlightAware
Sun 06:36:28 PM 37.3600 -78.8100 217° Southwest 343 395 38,000  Level FlightAware
Sun 06:37:18 PM 37.3060 -78.8610 217° Southwest 343 395 38,000  Level FlightAware
Sun 06:37:58 PM 37.2630 -78.9020 217° Southwest 343 395 38,000  Level FlightAware
Sun 06:38:38 PM 37.2200 -78.9420 217° Southwest 343 395 38,000  Level FlightAware
Sun 06:39:18 PM 37.1760 -78.9830 217° Southwest 343 395 38,000  Level FlightAware
Sun 06:39:58 PM 37.1330 -79.0240 217° Southwest 343 395 38,000  Level FlightAware
Sun 06:40:48 PM 37.0800 -79.0750 218° Southwest 343 395 38,000  Level FlightAware
Sun 06:41:23 PM 36.9410 -79.1980 215° Southwest 346 398 38,000  Level FlightAware
Sun 06:42:08 PM 36.8890 -79.2450 216° Southwest 346 398 38,000  Level FlightAware
Sun 06:42:48 PM 36.8450 -79.2850 216° Southwest 346 398 38,000  Level FlightAware
Sun 06:43:28 PM 36.8010 -79.3250 216° Southwest 346 398 38,000  Level FlightAware
Sun 06:44:18 PM 36.7460 -79.3750 216° Southwest 346 398 38,000  Level FlightAware
Sun 06:44:58 PM 36.7020 -79.4150 216° Southwest 346 398 38,000  Level FlightAware
Sun 06:45:38 PM 36.6580 -79.4550 216° Southwest 346 398 38,000  Level FlightAware
Sun 06:46:18 PM 36.6140 -79.4950 216° Southwest 346 398 38,000  Level FlightAware
Sun 06:46:58 PM 36.5700 -79.5340 215° Southwest 346 398 38,000  Level FlightAware
Sun 06:47:48 PM 36.5150 -79.5840 216° Southwest 346 398 38,000  Level FlightAware
Sun 06:48:28 PM 36.4710 -79.6240 216° Southwest 346 398 38,000  Level FlightAware
Sun 06:49:08 PM 36.4270 -79.6640 216° Southwest 346 398 38,000  Level FlightAware
Sun 06:49:48 PM 36.3830 -79.7030 216° Southwest 346 398 38,000  Level FlightAware
Sun 06:50:38 PM 36.3280 -79.7530 216° Southwest 346 398 38,000  Level FlightAware
Sun 06:51:18 PM 36.2840 -79.7930 216° Southwest 346 398 38,000  Level FlightAware
Sun 06:51:51 PM 36.1056 -79.9114 216° Southwest 354 407 38,000  Level Atlanta Center
Sun 06:52:51 PM 36.0111 -79.9494 198° South 354 407 38,000  Level Atlanta Center
Sun 06:53:51 PM 35.8994 -79.9858 195° South 373 429 38,000  Level Atlanta Center
Sun 06:54:51 PM 35.7983 -80.0192 195° South 379 436 38,000  Level Atlanta Center
Sun 06:55:51 PM 35.6972 -80.0522 195° South 379 436 38,000  Level Atlanta Center
Sun 06:56:51 PM 35.5942 -80.0906 197° South 379 436 38,000  Level Atlanta Center
Sun 06:57:51 PM 35.4931 -80.1258 196° South 374 430 38,000  Level Atlanta Center
Sun 06:58:51 PM 35.3919 -80.1614 196° South 374 430 38,000  Level Atlanta Center
Sun 06:59:51 PM 35.2969 -80.1911 194° South 374 430 38,000  Level Atlanta Center
Sun 07:00:51 PM 35.1978 -80.2236 195° South 377 434 38,000  Level Atlanta Center
Sun 07:02:32 PM 35.0172 -80.2869 196° South 375 432 38,000  Level Jacksonville Center
Sun 07:08:48 PM 34.3910 -80.5120 196° South 381 438 38,000  Level FlightAware
Sun 07:09:28 PM 34.3210 -80.5350 195° South 379 436 38,000  Level FlightAware
Sun 07:10:13 PM 34.2550 -80.5580 196° South 379 436 38,000  Level FlightAware
Sun 07:11:03 PM 34.1610 -80.5880 195° South 368 423 38,000  Level FlightAware
Sun 07:11:48 PM 34.0900 -80.6110 195° South 353 406 38,000  Level FlightAware
Sun 07:12:33 PM 34.0210 -80.6330 195° South 349 402 38,000  Level FlightAware
Sun 07:13:03 PM 33.9760 -80.6480 195° South 349 402 38,000  Level FlightAware
Sun 07:13:58 PM 33.8900 -80.6760 195° South 346 398 38,000  Level FlightAware
Sun 07:14:38 PM 33.8240 -80.6970 195° South 345 397 38,000  Level FlightAware
Sun 07:15:18 PM 33.7630 -80.7170 195° South 345 397 38,000  Level FlightAware
Sun 07:16:03 PM 33.6940 -80.7390 195° South 345 397 38,000  Level FlightAware
Sun 07:16:43 PM 33.6340 -80.7590 196° South 346 398 38,000  Level FlightAware
Sun 07:17:28 PM 33.5640 -80.7820 195° South 347 399 38,000  Level FlightAware
Sun 07:18:08 PM 33.5020 -80.8010 194° South 347 399 38,000  Level FlightAware
Sun 07:18:48 PM 33.4400 -80.8220 196° South 349 402 38,000  Level FlightAware
Sun 07:19:33 PM 33.3690 -80.8450 195° South 350 403 38,000  Level FlightAware
Sun 07:20:13 PM 33.3070 -80.8650 195° South 351 404 38,000  Level FlightAware
Sun 07:20:53 PM 33.2440 -80.8850 195° South 352 405 38,000  Level FlightAware
Sun 07:21:38 PM 33.1750 -80.9070 195° South 353 406 38,000  Level FlightAware
Sun 07:22:13 PM 33.1210 -80.9250 196° South 354 407 38,000  Level FlightAware
Sun 07:23:03 PM 33.0410 -80.9500 195° South 355 409 38,000  Level FlightAware
Sun 07:23:43 PM 32.9750 -80.9710 195° South 358 412 38,000  Level FlightAware
Sun 07:24:23 PM 32.9110 -80.9920 195° South 359 413 38,000  Level FlightAware
Sun 07:25:08 PM 32.8380 -81.0150 195° South 361 415 38,000  Level FlightAware
Sun 07:25:48 PM 32.7750 -81.0350 195° South 362 417 38,000  Level FlightAware
Sun 07:26:33 PM 32.7020 -81.0580 195° South 362 417 38,000  Level FlightAware
Sun 07:27:13 PM 32.6360 -81.0790 195° South 361 415 38,000  Level FlightAware
Sun 07:27:53 PM 32.5730 -81.1000 196° South 360 414 38,000  Level FlightAware
Sun 07:28:38 PM 32.5100 -81.1210 196° South 360 414 38,000  Level FlightAware
Sun 07:29:18 PM 32.4560 -81.1390 196° South 360 414 38,000  Level FlightAware
Sun 07:29:58 PM 32.4010 -81.1580 196° South 360 414 38,000  Level FlightAware
Sun 07:30:38 PM 32.3470 -81.1760 196° South 360 414 38,000  Level FlightAware
Sun 07:31:28 PM 32.2790 -81.1990 196° South 360 414 38,000  Level FlightAware
Sun 07:31:38 PM 32.2220 -81.1960 177° South 38,000  Level FlightAware
Sun 07:31:53 PM 32.1940 -81.1860 163° South 392 451 38,000  Level FlightAware
Sun 07:32:53 PM 32.0970 -81.1190 150° Southeast 412 474 38,000  Level FlightAware
Sun 07:33:13 PM 32.0860 -81.0390 99° East 481 554 38,000  Level FlightAware
Sun 07:34:23 PM 32.0840 -80.8610 91° East 504 580 38,000  Level FlightAware
Sun 07:35:03 PM 32.0890 -80.7680 86° East 504 580 38,000  Level FlightAware
Sun 07:35:53 PM 32.0960 -80.6510 86° East 504 580 38,000  Level FlightAware
Sun 07:36:33 PM 32.1010 -80.5580 86° East 504 580 38,000  Level FlightAware
Sun 07:36:43 PM 32.3500 -80.6860 337° Northwest 433 498 38,000  Level FlightAware
Sun 07:37:28 PM 32.4290 -80.7390 330° Northwest 378 435 38,000  Level FlightAware
Sun 07:38:08 PM 32.4670 -80.7990 307° West 350 403 38,000  Level FlightAware
Sun 07:38:48 PM 32.4820 -80.8730 284° West 330 380 38,000  Level FlightAware
Sun 07:39:33 PM 32.4700 -80.9510 260° West 321 369 38,000  Level FlightAware
Sun 07:40:18 PM 32.4370 -81.0110 237° Southwest 38,000  Level FlightAware
Sun 07:40:58 PM 32.3960 -81.0490 218° Southwest 354 407 38,000  Level FlightAware
Sun 07:41:43 PM 32.3390 -81.0930 213° Southwest 354 407 38,000  Level FlightAware
Sun 07:42:23 PM 32.2930 -81.1290 213° Southwest 354 407 38,000  Level FlightAware
Sun 07:43:08 PM 32.2030 -81.2040 215° Southwest 365 420 38,000  Level FlightAware
Sun 07:43:48 PM 32.1550 -81.2470 217° Southwest 368 423 38,000  Level FlightAware
Sun 07:44:28 PM 32.0990 -81.3020 220° Southwest 370 426 38,000  Level FlightAware
Sun 07:45:03 PM 32.0610 -81.3400 220° Southwest 369 425 38,000  Level FlightAware
Sun 07:45:43 PM 32.0080 -81.3920 220° Southwest 369 425 38,000  Level FlightAware
Sun 07:46:38 PM 31.9290 -81.4700 220° Southwest 367 422 38,000  Level FlightAware
Sun 07:47:18 PM 31.8760 -81.5210 219° Southwest 367 422 38,000  Level FlightAware
Sun 07:47:58 PM 31.8230 -81.5730 220° Southwest 366 421 38,000  Level FlightAware
Sun 07:48:43 PM 31.7750 -81.6190 219° Southwest 366 421 38,000  Level FlightAware
Sun 07:49:23 PM 31.7300 -81.6610 218° Southwest 366 421 38,000  Level FlightAware
Sun 07:50:03 PM 31.6860 -81.7040 220° Southwest 366 421 38,000  Level FlightAware
Sun 07:50:43 PM 31.6410 -81.7470 219° Southwest 366 421 38,000  Level FlightAware
Sun 07:51:23 PM 31.5960 -81.7890 218° Southwest 366 421 38,000  Level FlightAware
Sun 07:52:13 PM 31.5400 -81.8420 219° Southwest 366 421 38,000  Level FlightAware
Sun 07:52:53 PM 31.4960 -81.8850 220° Southwest 366 421 38,000  Level FlightAware
Sun 07:53:33 PM 31.4510 -81.9270 219° Southwest 366 421 38,000  Level FlightAware
Sun 07:54:13 PM 31.4060 -81.9700 219° Southwest 366 421 38,000  Level FlightAware
Sun 07:54:53 PM 31.3610 -82.0120 219° Southwest 366 421 38,000  Level FlightAware
Sun 07:55:33 PM 31.3170 -82.0550 220° Southwest 366 421 38,000  Level FlightAware
Sun 07:56:23 PM 31.2610 -82.1080 219° Southwest 366 421 38,000  Level FlightAware
Sun 07:57:03 PM 31.2160 -82.1500 219° Southwest 366 421 38,000  Level FlightAware
Sun 07:57:43 PM 31.1710 -82.1920 219° Southwest 366 421 38,000 -3,573 Level FlightAware
Sun 07:58:32 PM 30.7378 -82.0492 219° Southwest 417 480 32,700 -3,413 Descending Jacksonville Center
Sun 07:59:32 PM 30.6272 -82.0839 195° South 412 474 31,800 -900 Descending Jacksonville Center
Sun 08:00:32 PM 30.5147 -82.1161 194° South 412 474 30,900 -750 Descending Jacksonville Center
Sun 08:01:32 PM 30.4042 -82.1508 195° South 412 474 30,300 -700 Descending Jacksonville Center
Sun 08:02:32 PM 30.2939 -82.1878 196° South 412 474 29,500 -1,050 Descending Jacksonville Center
Sun 08:03:32 PM 30.1875 -82.2222 196° South 412 474 28,200 -1,150 Descending Jacksonville Center
Sun 08:04:32 PM 30.0706 -82.2086 174° South 412 474 27,200 -1,596 Descending Jacksonville Center
Sun 08:10:33 PM 29.4770 -82.0020 174° South 363 418 17,000 -1,507 Descending FlightAware
Sun 08:11:18 PM 29.4130 -81.9770 161° South 357 411 17,000  Level FlightAware
Sun 08:11:53 PM 29.3550 -81.9530 160° South 359 413 17,000  Level FlightAware
Sun 08:12:43 PM 29.2780 -81.9220 161° South 369 425 17,000 -758 Level FlightAware
Sun 08:13:28 PM 29.2040 -81.8950 162° South 356 410 15,800 -2,259 Descending FlightAware
Sun 08:14:08 PM 29.1350 -81.8680 161° South 361 415 13,800 -2,550 Descending FlightAware
Sun 08:14:48 PM 29.0730 -81.8450 162° South 355 409 12,400 -1,350 Descending FlightAware
Sun 08:15:28 PM 29.0160 -81.8230 161° South 335 386 12,000 -300 Descending FlightAware
Sun 08:16:08 PM 28.9600 -81.8020 162° South 340 391 12,000 -200 Level FlightAware
Sun 08:16:58 PM 28.8940 -81.7750 160° South 287 330 11,700 -212 Descending FlightAware
Sun 08:17:33 PM 28.8540 -81.7580 160° South 287 330 11,700 -1,800 Level FlightAware
Sun 08:18:08 PM 28.8080 -81.7400 161° South 277 319 9,600 -3,067 Descending FlightAware
Sun 08:18:18 PM 28.7940 -81.7330 156° South 277 319 9,400 -1,029 Descending FlightAware
Sun 08:18:43 PM 28.7620 -81.7200 160° South 275 316 9,000 -400 Descending FlightAware
Sun 08:19:18 PM 28.7260 -81.7040 159° South 275 316 9,000  Level FlightAware
Sun 08:19:23 PM 28.7310 -81.6790 77° East 276 318 9,000  Level FlightAware
Sun 08:19:48 PM 28.7400 -81.6430 74° East 284 327 9,000  Level FlightAware
Sun 08:20:08 PM 28.7530 -81.6230 53° Northeast 278 320 9,000 -218 Level FlightAware
Sun 08:20:43 PM 28.7790 -81.5810 55° Northeast 251 289 8,800 -700 Descending FlightAware
Sun 08:21:08 PM 28.7960 -81.5530 55° Northeast 246 283 8,300 -1,309 Descending FlightAware
Sun 08:21:38 PM 28.7980 -81.5170 86° East 236 272 7,600 -1,300 Descending FlightAware
Sun 08:22:08 PM 28.7920 -81.4790 100° East 235 270 7,000 -655 Descending FlightAware
Sun 08:22:33 PM 28.7880 -81.4490 99° East 238 274 7,000  Level FlightAware
Sun 08:22:58 PM 28.7840 -81.4180 98° East 235 270 7,000  Level FlightAware
Sun 08:23:28 PM 28.7790 -81.3800 99° East 238 274 7,000  Level FlightAware
Sun 08:23:43 PM 28.7730 -81.3630 112° Southeast 219 252 7,000 -150 Level FlightAware
Sun 08:24:08 PM 28.7550 -81.3430 136° Southeast 209 241 6,900 -764 Descending FlightAware
Sun 08:24:38 PM 28.7330 -81.3210 139° Southeast 206 237 6,300 -1,067 Descending FlightAware
Sun 08:24:53 PM 28.7240 -81.3180 164° South 196 226 6,100 -1,350 Descending FlightAware
Sun 08:25:18 PM 28.6980 -81.3170 178° South 195 224 5,400 -1,200 Descending FlightAware
Sun 08:25:48 PM 28.6740 -81.3180 182° South 192 221 5,000 -982 Descending FlightAware
Sun 08:26:13 PM 28.6510 -81.3180 180° South 194 223 4,500 -1,350 Descending FlightAware
Sun 08:26:28 PM 28.6350 -81.3170 177° South 198 228 4,100 -600 Descending FlightAware
Sun 08:26:53 PM 28.6140 -81.3180 182° South 198 228 4,100 -1,200 Level FlightAware
Sun 08:27:28 PM 28.5800 -81.3170 179° South 177 204 2,900 -1,200 Descending FlightAware
Sun 08:27:53 PM 28.5620 -81.3170 180° South 177 204 2,900 -764 Level FlightAware
Sun 08:28:23 PM 28.5370 -81.3170 180° South 161 185 2,200 -1,300 Descending FlightAware
Sun 08:28:53 PM 28.5130 -81.3170 180° South 145 167 1,600 -771 Descending FlightAware
Sun 08:29:33 PM 28.4910 -81.3170 180° South 130 150 1,300 -600 Descending FlightAware
Sun 08:30:03 PM 28.4700 -81.3170 180° South 134 154 900 -873 Descending FlightAware
Sun 08:30:28 PM 28.4540 -81.3170 180° South 133 153 500 -873 Descending FlightAware
Sun 08:30:58 PM 28.4330 -81.3170 180° South 129 148 100 -800 Descending FlightAware

Login

Don't have an account? Register now (free) for customized features, flight alerts, and more!